sensor_id;sensor_type;location;lat;lon;timestamp;P1;durP1;ratioP1;P2;durP2;ratioP2
76978;SDS011;65911;47.502;19.148;2023-11-21T00:00:31;12.50;;;7.43;;
76978;SDS011;65911;47.502;19.148;2023-11-21T00:03:33;12.27;;;6.53;;
76978;SDS011;65911;47.502;19.148;2023-11-21T00:06:36;12.80;;;6.57;;
76978;SDS011;65911;47.502;19.148;2023-11-21T00:09:38;15.38;;;7.00;;
76978;SDS011;65911;47.502;19.148;2023-11-21T00:12:41;13.15;;;6.88;;
76978;SDS011;65911;47.502;19.148;2023-11-21T00:15:44;14.05;;;6.07;;
76978;SDS011;65911;47.502;19.148;2023-11-21T00:18:46;11.77;;;6.68;;
76978;SDS011;65911;47.502;19.148;2023-11-21T00:21:48;10.55;;;5.90;;
76978;SDS011;65911;47.502;19.148;2023-11-21T00:24:51;11.45;;;6.22;;
76978;SDS011;65911;47.502;19.148;2023-11-21T00:27:53;11.00;;;5.87;;
76978;SDS011;65911;47.502;19.148;2023-11-21T00:30:55;8.90;;;6.00;;
76978;SDS011;65911;47.502;19.148;2023-11-21T00:33:58;9.73;;;5.78;;
76978;SDS011;65911;47.502;19.148;2023-11-21T00:37:00;14.37;;;7.63;;
76978;SDS011;65911;47.502;19.148;2023-11-21T00:40:02;14.90;;;8.60;;
76978;SDS011;65911;47.502;19.148;2023-11-21T00:43:09;16.08;;;8.00;;
76978;SDS011;65911;47.502;19.148;2023-11-21T00:46:11;17.20;;;8.85;;
76978;SDS011;65911;47.502;19.148;2023-11-21T00:49:13;15.63;;;8.82;;
76978;SDS011;65911;47.502;19.148;2023-11-21T00:52:15;18.33;;;9.90;;
76978;SDS011;65911;47.502;19.148;2023-11-21T00:55:18;18.13;;;10.10;;
76978;SDS011;65911;47.502;19.148;2023-11-21T00:58:20;18.30;;;9.90;;
76978;SDS011;65911;47.502;19.148;2023-11-21T01:01:22;18.08;;;10.18;;
76978;SDS011;65911;47.502;19.148;2023-11-21T01:04:25;19.25;;;10.40;;
76978;SDS011;65911;47.502;19.148;2023-11-21T01:07:28;18.30;;;10.63;;
76978;SDS011;65911;47.502;19.148;2023-11-21T01:10:31;20.95;;;11.02;;
76978;SDS011;65911;47.502;19.148;2023-11-21T01:13:34;19.52;;;10.60;;
76978;SDS011;65911;47.502;19.148;2023-11-21T01:16:37;22.23;;;10.88;;
76978;SDS011;65911;47.502;19.148;2023-11-21T01:19:39;22.35;;;11.20;;
76978;SDS011;65911;47.502;19.148;2023-11-21T01:22:42;23.08;;;12.80;;
76978;SDS011;65911;47.502;19.148;2023-11-21T01:25:45;20.52;;;12.75;;
76978;SDS011;65911;47.502;19.148;2023-11-21T01:28:47;24.97;;;11.90;;
76978;SDS011;65911;47.502;19.148;2023-11-21T01:31:52;22.25;;;12.70;;
76978;SDS011;65911;47.502;19.148;2023-11-21T01:34:55;22.25;;;12.57;;
76978;SDS011;65911;47.502;19.148;2023-11-21T01:37:57;24.50;;;13.13;;
76978;SDS011;65911;47.502;19.148;2023-11-21T01:40:59;25.42;;;13.10;;
76978;SDS011;65911;47.502;19.148;2023-11-21T01:44:02;22.95;;;12.95;;
76978;SDS011;65911;47.502;19.148;2023-11-21T01:47:06;22.58;;;13.00;;
76978;SDS011;65911;47.502;19.148;2023-11-21T01:50:08;22.92;;;13.00;;
76978;SDS011;65911;47.502;19.148;2023-11-21T01:53:16;24.58;;;13.60;;
76978;SDS011;65911;47.502;19.148;2023-11-21T01:56:20;20.35;;;12.50;;
76978;SDS011;65911;47.502;19.148;2023-11-21T01:59:22;20.30;;;12.20;;
76978;SDS011;65911;47.502;19.148;2023-11-21T02:02:25;22.20;;;12.95;;
76978;SDS011;65911;47.502;19.148;2023-11-21T02:05:27;22.50;;;12.73;;
76978;SDS011;65911;47.502;19.148;2023-11-21T02:08:32;22.60;;;12.53;;
76978;SDS011;65911;47.502;19.148;2023-11-21T02:11:35;23.05;;;12.07;;
76978;SDS011;65911;47.502;19.148;2023-11-21T02:14:37;25.45;;;12.80;;
76978;SDS011;65911;47.502;19.148;2023-11-21T02:17:39;22.80;;;13.27;;
76978;SDS011;65911;47.502;19.148;2023-11-21T02:20:41;26.00;;;13.38;;
76978;SDS011;65911;47.502;19.148;2023-11-21T02:23:44;25.67;;;13.90;;
76978;SDS011;65911;47.502;19.148;2023-11-21T02:26:48;27.52;;;13.90;;
76978;SDS011;65911;47.502;19.148;2023-11-21T02:29:53;25.57;;;13.70;;
76978;SDS011;65911;47.502;19.148;2023-11-21T02:32:56;27.10;;;13.27;;
76978;SDS011;65911;47.502;19.148;2023-11-21T02:36:00;23.35;;;13.23;;
76978;SDS011;65911;47.502;19.148;2023-11-21T02:39:03;24.40;;;13.87;;
76978;SDS011;65911;47.502;19.148;2023-11-21T02:42:06;24.42;;;12.63;;
76978;SDS011;65911;47.502;19.148;2023-11-21T02:45:09;20.77;;;12.95;;
76978;SDS011;65911;47.502;19.148;2023-11-21T02:48:14;20.38;;;12.05;;
76978;SDS011;65911;47.502;19.148;2023-11-21T02:51:16;21.33;;;12.98;;
76978;SDS011;65911;47.502;19.148;2023-11-21T02:54:19;23.23;;;12.82;;
76978;SDS011;65911;47.502;19.148;2023-11-21T02:57:21;21.02;;;11.82;;
76978;SDS011;65911;47.502;19.148;2023-11-21T03:00:23;20.73;;;11.77;;
76978;SDS011;65911;47.502;19.148;2023-11-21T03:03:27;21.40;;;12.10;;
76978;SDS011;65911;47.502;19.148;2023-11-21T03:06:30;21.25;;;12.85;;
76978;SDS011;65911;47.502;19.148;2023-11-21T03:09:32;22.37;;;12.77;;
76978;SDS011;65911;47.502;19.148;2023-11-21T03:12:35;22.65;;;12.32;;
76978;SDS011;65911;47.502;19.148;2023-11-21T03:15:37;22.13;;;12.30;;
76978;SDS011;65911;47.502;19.148;2023-11-21T03:18:39;20.02;;;12.48;;
76978;SDS011;65911;47.502;19.148;2023-11-21T03:21:42;19.90;;;11.77;;
76978;SDS011;65911;47.502;19.148;2023-11-21T03:24:44;21.15;;;12.75;;
76978;SDS011;65911;47.502;19.148;2023-11-21T03:27:46;20.50;;;11.90;;
76978;SDS011;65911;47.502;19.148;2023-11-21T03:30:49;19.00;;;12.13;;
76978;SDS011;65911;47.502;19.148;2023-11-21T03:33:53;20.95;;;12.70;;
76978;SDS011;65911;47.502;19.148;2023-11-21T03:36:55;23.55;;;12.18;;
76978;SDS011;65911;47.502;19.148;2023-11-21T03:39:58;22.10;;;12.83;;
76978;SDS011;65911;47.502;19.148;2023-11-21T03:43:00;20.27;;;12.38;;
76978;SDS011;65911;47.502;19.148;2023-11-21T03:46:02;20.02;;;12.90;;
76978;SDS011;65911;47.502;19.148;2023-11-21T03:49:05;21.92;;;12.25;;
76978;SDS011;65911;47.502;19.148;2023-11-21T03:52:07;21.75;;;12.35;;
76978;SDS011;65911;47.502;19.148;2023-11-21T03:55:09;22.17;;;12.73;;
76978;SDS011;65911;47.502;19.148;2023-11-21T03:58:15;23.05;;;12.90;;
76978;SDS011;65911;47.502;19.148;2023-11-21T04:01:23;20.23;;;12.33;;
76978;SDS011;65911;47.502;19.148;2023-11-21T04:04:26;20.83;;;12.23;;
76978;SDS011;65911;47.502;19.148;2023-11-21T04:07:28;20.63;;;12.07;;
76978;SDS011;65911;47.502;19.148;2023-11-21T04:10:30;22.17;;;12.33;;
76978;SDS011;65911;47.502;19.148;2023-11-21T04:13:33;19.55;;;11.63;;
76978;SDS011;65911;47.502;19.148;2023-11-21T04:16:35;21.85;;;12.07;;
76978;SDS011;65911;47.502;19.148;2023-11-21T04:19:37;19.30;;;10.90;;
76978;SDS011;65911;47.502;19.148;2023-11-21T04:22:40;20.08;;;11.52;;
76978;SDS011;65911;47.502;19.148;2023-11-21T04:25:46;19.88;;;11.52;;
76978;SDS011;65911;47.502;19.148;2023-11-21T04:28:48;19.48;;;10.25;;
76978;SDS011;65911;47.502;19.148;2023-11-21T04:31:51;19.83;;;11.03;;
76978;SDS011;65911;47.502;19.148;2023-11-21T04:34:54;18.30;;;10.68;;
76978;SDS011;65911;47.502;19.148;2023-11-21T04:37:56;20.55;;;11.52;;
76978;SDS011;65911;47.502;19.148;2023-11-21T04:40:59;16.93;;;10.77;;
76978;SDS011;65911;47.502;19.148;2023-11-21T04:44:05;19.58;;;11.38;;
76978;SDS011;65911;47.502;19.148;2023-11-21T04:47:07;23.60;;;12.52;;
76978;SDS011;65911;47.502;19.148;2023-11-21T04:50:10;20.77;;;11.95;;
76978;SDS011;65911;47.502;19.148;2023-11-21T04:53:12;20.05;;;11.88;;
76978;SDS011;65911;47.502;19.148;2023-11-21T04:56:16;19.58;;;12.13;;
76978;SDS011;65911;47.502;19.148;2023-11-21T04:59:18;22.52;;;12.35;;
76978;SDS011;65911;47.502;19.148;2023-11-21T05:02:20;24.33;;;12.47;;
76978;SDS011;65911;47.502;19.148;2023-11-21T05:05:36;20.55;;;12.15;;
76978;SDS011;65911;47.502;19.148;2023-11-21T05:08:38;20.63;;;11.50;;
76978;SDS011;65911;47.502;19.148;2023-11-21T05:11:40;22.37;;;11.60;;
76978;SDS011;65911;47.502;19.148;2023-11-21T05:14:42;22.88;;;11.48;;
76978;SDS011;65911;47.502;19.148;2023-11-21T05:17:45;20.63;;;11.10;;
76978;SDS011;65911;47.502;19.148;2023-11-21T05:20:48;16.80;;;10.25;;
76978;SDS011;65911;47.502;19.148;2023-11-21T05:23:52;17.13;;;9.48;;
76978;SDS011;65911;47.502;19.148;2023-11-21T05:26:54;16.83;;;9.68;;
76978;SDS011;65911;47.502;19.148;2023-11-21T05:30:03;24.52;;;10.85;;
76978;SDS011;65911;47.502;19.148;2023-11-21T05:33:07;16.73;;;8.23;;
76978;SDS011;65911;47.502;19.148;2023-11-21T05:36:09;17.33;;;9.32;;
76978;SDS011;65911;47.502;19.148;2023-11-21T05:39:12;18.67;;;10.82;;
76978;SDS011;65911;47.502;19.148;2023-11-21T05:42:14;21.00;;;10.83;;
76978;SDS011;65911;47.502;19.148;2023-11-21T05:45:17;19.33;;;11.52;;
76978;SDS011;65911;47.502;19.148;2023-11-21T05:48:20;22.23;;;12.35;;
76978;SDS011;65911;47.502;19.148;2023-11-21T05:51:23;22.33;;;12.68;;
76978;SDS011;65911;47.502;19.148;2023-11-21T05:54:25;21.35;;;12.25;;
76978;SDS011;65911;47.502;19.148;2023-11-21T05:57:28;23.75;;;13.10;;
76978;SDS011;65911;47.502;19.148;2023-11-21T06:00:30;26.05;;;13.90;;
76978;SDS011;65911;47.502;19.148;2023-11-21T06:03:33;27.10;;;13.93;;
76978;SDS011;65911;47.502;19.148;2023-11-21T06:06:36;26.50;;;13.95;;
76978;SDS011;65911;47.502;19.148;2023-11-21T06:09:38;22.20;;;12.82;;
76978;SDS011;65911;47.502;19.148;2023-11-21T06:12:40;25.47;;;13.73;;
76978;SDS011;65911;47.502;19.148;2023-11-21T06:15:44;26.70;;;13.15;;
76978;SDS011;65911;47.502;19.148;2023-11-21T06:18:47;26.52;;;14.65;;
76978;SDS011;65911;47.502;19.148;2023-11-21T06:21:49;25.95;;;13.65;;
76978;SDS011;65911;47.502;19.148;2023-11-21T06:24:52;25.88;;;13.52;;
76978;SDS011;65911;47.502;19.148;2023-11-21T06:27:54;25.58;;;14.02;;
76978;SDS011;65911;47.502;19.148;2023-11-21T06:30:56;26.38;;;14.18;;
76978;SDS011;65911;47.502;19.148;2023-11-21T06:34:06;27.43;;;13.60;;
76978;SDS011;65911;47.502;19.148;2023-11-21T06:37:11;25.73;;;14.05;;
76978;SDS011;65911;47.502;19.148;2023-11-21T06:40:14;23.88;;;13.50;;
76978;SDS011;65911;47.502;19.148;2023-11-21T06:43:23;23.20;;;12.60;;
76978;SDS011;65911;47.502;19.148;2023-11-21T06:46:25;20.70;;;11.60;;
76978;SDS011;65911;47.502;19.148;2023-11-21T06:49:28;23.92;;;12.30;;
76978;SDS011;65911;47.502;19.148;2023-11-21T06:52:30;26.67;;;12.40;;
76978;SDS011;65911;47.502;19.148;2023-11-21T06:55:32;18.38;;;10.63;;
76978;SDS011;65911;47.502;19.148;2023-11-21T06:58:35;20.27;;;11.95;;
76978;SDS011;65911;47.502;19.148;2023-11-21T07:01:37;21.45;;;11.95;;
76978;SDS011;65911;47.502;19.148;2023-11-21T07:04:43;23.03;;;10.50;;
76978;SDS011;65911;47.502;19.148;2023-11-21T07:07:47;20.50;;;10.45;;
76978;SDS011;65911;47.502;19.148;2023-11-21T07:10:51;19.67;;;10.35;;
76978;SDS011;65911;47.502;19.148;2023-11-21T07:13:53;20.17;;;10.70;;
76978;SDS011;65911;47.502;19.148;2023-11-21T07:16:55;25.98;;;10.75;;
76978;SDS011;65911;47.502;19.148;2023-11-21T07:19:58;34.38;;;14.25;;
76978;SDS011;65911;47.502;19.148;2023-11-21T07:23:00;30.42;;;13.57;;
76978;SDS011;65911;47.502;19.148;2023-11-21T07:26:03;32.38;;;13.55;;
76978;SDS011;65911;47.502;19.148;2023-11-21T07:29:05;27.83;;;13.35;;
76978;SDS011;65911;47.502;19.148;2023-11-21T07:32:09;26.38;;;12.43;;
76978;SDS011;65911;47.502;19.148;2023-11-21T07:35:11;27.37;;;12.17;;
76978;SDS011;65911;47.502;19.148;2023-11-21T07:38:13;27.30;;;12.20;;
76978;SDS011;65911;47.502;19.148;2023-11-21T07:41:16;28.40;;;13.00;;
76978;SDS011;65911;47.502;19.148;2023-11-21T07:44:32;28.73;;;13.13;;
76978;SDS011;65911;47.502;19.148;2023-11-21T07:47:34;25.00;;;12.65;;
76978;SDS011;65911;47.502;19.148;2023-11-21T07:50:37;27.50;;;12.70;;
76978;SDS011;65911;47.502;19.148;2023-11-21T07:53:39;23.13;;;11.43;;
76978;SDS011;65911;47.502;19.148;2023-11-21T07:56:42;26.83;;;12.07;;
76978;SDS011;65911;47.502;19.148;2023-11-21T07:59:44;23.27;;;11.27;;
76978;SDS011;65911;47.502;19.148;2023-11-21T08:02:46;21.80;;;10.35;;
76978;SDS011;65911;47.502;19.148;2023-11-21T08:05:49;20.40;;;10.07;;
76978;SDS011;65911;47.502;19.148;2023-11-21T08:08:51;22.80;;;10.73;;
76978;SDS011;65911;47.502;19.148;2023-11-21T08:11:53;17.30;;;9.77;;
76978;SDS011;65911;47.502;19.148;2023-11-21T08:14:55;25.63;;;11.43;;
76978;SDS011;65911;47.502;19.148;2023-11-21T08:17:58;20.85;;;10.38;;
76978;SDS011;65911;47.502;19.148;2023-11-21T08:21:03;17.33;;;9.23;;
76978;SDS011;65911;47.502;19.148;2023-11-21T08:24:07;19.35;;;8.45;;
76978;SDS011;65911;47.502;19.148;2023-11-21T08:27:12;18.60;;;7.82;;
76978;SDS011;65911;47.502;19.148;2023-11-21T08:30:18;18.23;;;7.60;;
76978;SDS011;65911;47.502;19.148;2023-11-21T08:33:21;19.60;;;9.45;;
76978;SDS011;65911;47.502;19.148;2023-11-21T08:36:24;22.20;;;9.53;;
76978;SDS011;65911;47.502;19.148;2023-11-21T08:39:27;17.77;;;9.35;;
76978;SDS011;65911;47.502;19.148;2023-11-21T08:42:29;22.60;;;10.23;;
76978;SDS011;65911;47.502;19.148;2023-11-21T08:45:32;24.63;;;9.93;;
76978;SDS011;65911;47.502;19.148;2023-11-21T08:48:36;22.55;;;9.85;;
76978;SDS011;65911;47.502;19.148;2023-11-21T08:51:38;22.08;;;10.25;;
76978;SDS011;65911;47.502;19.148;2023-11-21T08:54:40;19.88;;;9.88;;
76978;SDS011;65911;47.502;19.148;2023-11-21T08:57:43;26.13;;;10.93;;
76978;SDS011;65911;47.502;19.148;2023-11-21T09:00:47;20.13;;;10.02;;
76978;SDS011;65911;47.502;19.148;2023-11-21T09:03:49;21.27;;;10.30;;
76978;SDS011;65911;47.502;19.148;2023-11-21T09:06:52;20.53;;;10.20;;
76978;SDS011;65911;47.502;19.148;2023-11-21T09:09:54;17.85;;;9.75;;
76978;SDS011;65911;47.502;19.148;2023-11-21T09:12:57;25.85;;;10.80;;
76978;SDS011;65911;47.502;19.148;2023-11-21T09:16:00;22.13;;;11.90;;
76978;SDS011;65911;47.502;19.148;2023-11-21T09:19:03;26.35;;;12.90;;
76978;SDS011;65911;47.502;19.148;2023-11-21T09:22:07;27.20;;;14.10;;
76978;SDS011;65911;47.502;19.148;2023-11-21T09:25:09;28.73;;;13.77;;
76978;SDS011;65911;47.502;19.148;2023-11-21T09:28:12;19.67;;;11.52;;
76978;SDS011;65911;47.502;19.148;2023-11-21T09:31:15;24.85;;;12.95;;
76978;SDS011;65911;47.502;19.148;2023-11-21T09:34:18;25.15;;;11.23;;
76978;SDS011;65911;47.502;19.148;2023-11-21T09:37:20;18.23;;;10.87;;
76978;SDS011;65911;47.502;19.148;2023-11-21T09:40:22;24.48;;;12.45;;
76978;SDS011;65911;47.502;19.148;2023-11-21T09:43:25;25.00;;;12.27;;
76978;SDS011;65911;47.502;19.148;2023-11-21T09:46:30;22.00;;;11.77;;
76978;SDS011;65911;47.502;19.148;2023-11-21T09:49:32;22.02;;;11.73;;
76978;SDS011;65911;47.502;19.148;2023-11-21T09:52:45;24.70;;;12.60;;
76978;SDS011;65911;47.502;19.148;2023-11-21T09:55:51;21.80;;;12.10;;
76978;SDS011;65911;47.502;19.148;2023-11-21T09:58:54;24.33;;;11.75;;
76978;SDS011;65911;47.502;19.148;2023-11-21T10:01:59;22.05;;;11.32;;
76978;SDS011;65911;47.502;19.148;2023-11-21T10:05:01;21.08;;;12.65;;
76978;SDS011;65911;47.502;19.148;2023-11-21T10:08:08;24.63;;;12.47;;
76978;SDS011;65911;47.502;19.148;2023-11-21T10:11:14;23.73;;;11.60;;
76978;SDS011;65911;47.502;19.148;2023-11-21T10:14:17;27.27;;;12.10;;
76978;SDS011;65911;47.502;19.148;2023-11-21T10:17:23;20.67;;;11.90;;
76978;SDS011;65911;47.502;19.148;2023-11-21T10:20:28;24.45;;;11.80;;
76978;SDS011;65911;47.502;19.148;2023-11-21T10:23:31;22.95;;;11.50;;
76978;SDS011;65911;47.502;19.148;2023-11-21T10:26:33;25.13;;;12.40;;
76978;SDS011;65911;47.502;19.148;2023-11-21T10:29:51;22.55;;;12.40;;
76978;SDS011;65911;47.502;19.148;2023-11-21T10:32:58;28.42;;;12.82;;
76978;SDS011;65911;47.502;19.148;2023-11-21T10:36:01;26.80;;;12.52;;
76978;SDS011;65911;47.502;19.148;2023-11-21T10:39:04;22.33;;;10.93;;
76978;SDS011;65911;47.502;19.148;2023-11-21T10:42:08;22.65;;;11.13;;
76978;SDS011;65911;47.502;19.148;2023-11-21T10:45:12;26.85;;;11.25;;
76978;SDS011;65911;47.502;19.148;2023-11-21T10:48:16;23.17;;;11.20;;
76978;SDS011;65911;47.502;19.148;2023-11-21T10:51:19;26.48;;;11.68;;
76978;SDS011;65911;47.502;19.148;2023-11-21T10:54:23;21.60;;;11.15;;
76978;SDS011;65911;47.502;19.148;2023-11-21T10:57:27;21.88;;;11.63;;
76978;SDS011;65911;47.502;19.148;2023-11-21T11:00:29;23.83;;;11.10;;
76978;SDS011;65911;47.502;19.148;2023-11-21T11:03:32;27.30;;;11.80;;
76978;SDS011;65911;47.502;19.148;2023-11-21T11:06:35;19.73;;;10.55;;
76978;SDS011;65911;47.502;19.148;2023-11-21T11:09:40;22.70;;;11.23;;
76978;SDS011;65911;47.502;19.148;2023-11-21T11:12:43;22.17;;;11.57;;
76978;SDS011;65911;47.502;19.148;2023-11-21T11:15:48;22.15;;;9.80;;
76978;SDS011;65911;47.502;19.148;2023-11-21T11:18:50;18.40;;;8.40;;
76978;SDS011;65911;47.502;19.148;2023-11-21T11:28:26;16.70;;;8.70;;
76978;SDS011;65911;47.502;19.148;2023-11-21T11:31:35;20.05;;;8.30;;
76978;SDS011;65911;47.502;19.148;2023-11-21T11:34:54;14.32;;;8.50;;
76978;SDS011;65911;47.502;19.148;2023-11-21T11:38:02;18.25;;;8.32;;
76978;SDS011;65911;47.502;19.148;2023-11-21T11:41:05;17.37;;;8.20;;
76978;SDS011;65911;47.502;19.148;2023-11-21T11:44:45;19.90;;;8.48;;
76978;SDS011;65911;47.502;19.148;2023-11-21T11:47:49;16.50;;;8.10;;
76978;SDS011;65911;47.502;19.148;2023-11-21T11:51:32;15.03;;;7.73;;
76978;SDS011;65911;47.502;19.148;2023-11-21T11:54:36;15.85;;;8.10;;
76978;SDS011;65911;47.502;19.148;2023-11-21T11:57:41;15.95;;;6.97;;
76978;SDS011;65911;47.502;19.148;2023-11-21T12:00:44;18.52;;;7.22;;
76978;SDS011;65911;47.502;19.148;2023-11-21T12:07:16;13.55;;;5.97;;
76978;SDS011;65911;47.502;19.148;2023-11-21T12:10:41;11.30;;;4.85;;
76978;SDS011;65911;47.502;19.148;2023-11-21T12:13:42;11.07;;;4.70;;
76978;SDS011;65911;47.502;19.148;2023-11-21T12:16:44;10.05;;;5.10;;
76978;SDS011;65911;47.502;19.148;2023-11-21T12:19:47;10.65;;;4.47;;
76978;SDS011;65911;47.502;19.148;2023-11-21T12:22:50;9.97;;;4.30;;
76978;SDS011;65911;47.502;19.148;2023-11-21T12:25:54;14.90;;;4.80;;
76978;SDS011;65911;47.502;19.148;2023-11-21T12:28:56;11.10;;;4.78;;
76978;SDS011;65911;47.502;19.148;2023-11-21T12:31:59;8.23;;;4.07;;
76978;SDS011;65911;47.502;19.148;2023-11-21T12:35:01;10.38;;;4.03;;
76978;SDS011;65911;47.502;19.148;2023-11-21T12:38:08;12.80;;;4.68;;
76978;SDS011;65911;47.502;19.148;2023-11-21T12:41:15;14.10;;;4.85;;
76978;SDS011;65911;47.502;19.148;2023-11-21T12:44:19;11.30;;;3.90;;
76978;SDS011;65911;47.502;19.148;2023-11-21T12:47:21;12.45;;;4.60;;
76978;SDS011;65911;47.502;19.148;2023-11-21T12:50:24;12.93;;;5.03;;
76978;SDS011;65911;47.502;19.148;2023-11-21T12:53:30;9.57;;;3.57;;
76978;SDS011;65911;47.502;19.148;2023-11-21T12:56:39;13.43;;;4.45;;
76978;SDS011;65911;47.502;19.148;2023-11-21T12:59:41;6.32;;;2.97;;
76978;SDS011;65911;47.502;19.148;2023-11-21T13:02:44;8.50;;;3.97;;
76978;SDS011;65911;47.502;19.148;2023-11-21T13:05:47;10.95;;;3.75;;
76978;SDS011;65911;47.502;19.148;2023-11-21T13:08:54;12.18;;;4.15;;
76978;SDS011;65911;47.502;19.148;2023-11-21T13:12:00;7.95;;;3.38;;
76978;SDS011;65911;47.502;19.148;2023-11-21T13:15:08;10.37;;;3.47;;
76978;SDS011;65911;47.502;19.148;2023-11-21T13:18:10;8.30;;;3.45;;
76978;SDS011;65911;47.502;19.148;2023-11-21T13:21:13;7.32;;;3.60;;
76978;SDS011;65911;47.502;19.148;2023-11-21T13:24:16;10.80;;;3.90;;
76978;SDS011;65911;47.502;19.148;2023-11-21T13:27:23;8.52;;;3.78;;
76978;SDS011;65911;47.502;19.148;2023-11-21T13:30:28;8.93;;;4.03;;
76978;SDS011;65911;47.502;19.148;2023-11-21T13:33:35;11.32;;;4.38;;
76978;SDS011;65911;47.502;19.148;2023-11-21T13:36:40;8.85;;;3.75;;
76978;SDS011;65911;47.502;19.148;2023-11-21T13:39:44;10.68;;;4.57;;
76978;SDS011;65911;47.502;19.148;2023-11-21T13:42:53;12.77;;;4.13;;
76978;SDS011;65911;47.502;19.148;2023-11-21T13:45:56;10.97;;;4.33;;
76978;SDS011;65911;47.502;19.148;2023-11-21T13:49:05;8.85;;;3.60;;
76978;SDS011;65911;47.502;19.148;2023-11-21T13:52:12;12.68;;;4.47;;
76978;SDS011;65911;47.502;19.148;2023-11-21T13:55:18;8.63;;;4.63;;
76978;SDS011;65911;47.502;19.148;2023-11-21T13:58:21;12.63;;;5.00;;
76978;SDS011;65911;47.502;19.148;2023-11-21T14:01:42;10.20;;;5.10;;
76978;SDS011;65911;47.502;19.148;2023-11-21T14:04:56;10.02;;;4.75;;
76978;SDS011;65911;47.502;19.148;2023-11-21T14:08:02;9.80;;;5.40;;
76978;SDS011;65911;47.502;19.148;2023-11-21T14:11:07;11.20;;;5.85;;
76978;SDS011;65911;47.502;19.148;2023-11-21T14:14:09;12.57;;;5.72;;
76978;SDS011;65911;47.502;19.148;2023-11-21T14:17:11;12.53;;;6.23;;
76978;SDS011;65911;47.502;19.148;2023-11-21T14:20:14;14.15;;;5.60;;
76978;SDS011;65911;47.502;19.148;2023-11-21T14:23:19;9.18;;;4.15;;
76978;SDS011;65911;47.502;19.148;2023-11-21T14:26:23;11.53;;;4.47;;
76978;SDS011;65911;47.502;19.148;2023-11-21T14:29:26;9.85;;;3.60;;
76978;SDS011;65911;47.502;19.148;2023-11-21T14:32:29;7.63;;;3.35;;
76978;SDS011;65911;47.502;19.148;2023-11-21T14:35:33;8.50;;;4.07;;
76978;SDS011;65911;47.502;19.148;2023-11-21T14:38:36;7.53;;;3.47;;
76978;SDS011;65911;47.502;19.148;2023-11-21T14:41:41;7.05;;;3.20;;
76978;SDS011;65911;47.502;19.148;2023-11-21T14:44:46;9.48;;;3.50;;
76978;SDS011;65911;47.502;19.148;2023-11-21T14:47:48;8.83;;;3.23;;
76978;SDS011;65911;47.502;19.148;2023-11-21T14:51:11;8.73;;;3.42;;
76978;SDS011;65911;47.502;19.148;2023-11-21T14:54:29;6.97;;;2.85;;
76978;SDS011;65911;47.502;19.148;2023-11-21T14:57:48;8.23;;;3.20;;
76978;SDS011;65911;47.502;19.148;2023-11-21T15:00:54;6.40;;;2.90;;
76978;SDS011;65911;47.502;19.148;2023-11-21T15:04:00;9.57;;;3.20;;
76978;SDS011;65911;47.502;19.148;2023-11-21T15:07:05;9.50;;;3.33;;
76978;SDS011;65911;47.502;19.148;2023-11-21T15:10:08;6.75;;;3.63;;
76978;SDS011;65911;47.502;19.148;2023-11-21T15:13:15;7.65;;;3.63;;
76978;SDS011;65911;47.502;19.148;2023-11-21T15:16:18;10.95;;;3.85;;
76978;SDS011;65911;47.502;19.148;2023-11-21T15:19:20;8.23;;;3.93;;
76978;SDS011;65911;47.502;19.148;2023-11-21T15:22:27;8.90;;;3.92;;
76978;SDS011;65911;47.502;19.148;2023-11-21T15:25:30;9.10;;;4.28;;
76978;SDS011;65911;47.502;19.148;2023-11-21T15:28:32;11.57;;;5.07;;
76978;SDS011;65911;47.502;19.148;2023-11-21T15:31:35;11.20;;;5.10;;
76978;SDS011;65911;47.502;19.148;2023-11-21T15:34:39;13.27;;;5.53;;
76978;SDS011;65911;47.502;19.148;2023-11-21T15:37:41;13.55;;;6.50;;
76978;SDS011;65911;47.502;19.148;2023-11-21T15:40:45;16.73;;;7.47;;
76978;SDS011;65911;47.502;19.148;2023-11-21T15:43:47;11.15;;;6.25;;
76978;SDS011;65911;47.502;19.148;2023-11-21T15:46:54;13.18;;;6.32;;
76978;SDS011;65911;47.502;19.148;2023-11-21T15:49:57;11.03;;;6.27;;
76978;SDS011;65911;47.502;19.148;2023-11-21T15:52:59;13.15;;;6.78;;
76978;SDS011;65911;47.502;19.148;2023-11-21T15:56:03;13.50;;;7.13;;
76978;SDS011;65911;47.502;19.148;2023-11-21T15:59:06;20.80;;;7.33;;
76978;SDS011;65911;47.502;19.148;2023-11-21T16:02:08;16.65;;;7.43;;
76978;SDS011;65911;47.502;19.148;2023-11-21T16:05:12;14.82;;;8.10;;
76978;SDS011;65911;47.502;19.148;2023-11-21T16:08:19;16.02;;;8.27;;
76978;SDS011;65911;47.502;19.148;2023-11-21T16:11:22;18.15;;;8.07;;
76978;SDS011;65911;47.502;19.148;2023-11-21T16:14:25;17.33;;;8.65;;
76978;SDS011;65911;47.502;19.148;2023-11-21T16:17:28;19.65;;;8.82;;
76978;SDS011;65911;47.502;19.148;2023-11-21T16:20:31;18.07;;;8.63;;
76978;SDS011;65911;47.502;19.148;2023-11-21T16:23:34;21.63;;;8.73;;
76978;SDS011;65911;47.502;19.148;2023-11-21T16:26:36;15.35;;;8.63;;
76978;SDS011;65911;47.502;19.148;2023-11-21T16:29:39;17.90;;;8.73;;
76978;SDS011;65911;47.502;19.148;2023-11-21T16:32:43;20.52;;;8.68;;
76978;SDS011;65911;47.502;19.148;2023-11-21T16:35:46;16.83;;;8.85;;
76978;SDS011;65911;47.502;19.148;2023-11-21T16:38:49;24.17;;;9.65;;
76978;SDS011;65911;47.502;19.148;2023-11-21T16:41:51;19.35;;;9.75;;
76978;SDS011;65911;47.502;19.148;2023-11-21T16:44:53;19.73;;;9.52;;
76978;SDS011;65911;47.502;19.148;2023-11-21T16:47:56;19.90;;;9.82;;
76978;SDS011;65911;47.502;19.148;2023-11-21T16:50:58;18.60;;;9.43;;
76978;SDS011;65911;47.502;19.148;2023-11-21T16:54:01;19.13;;;9.65;;
76978;SDS011;65911;47.502;19.148;2023-11-21T16:57:04;19.33;;;8.55;;
76978;SDS011;65911;47.502;19.148;2023-11-21T17:00:06;17.13;;;8.80;;
76978;SDS011;65911;47.502;19.148;2023-11-21T17:03:09;19.35;;;8.27;;
76978;SDS011;65911;47.502;19.148;2023-11-21T17:06:11;19.88;;;8.85;;
76978;SDS011;65911;47.502;19.148;2023-11-21T17:09:14;18.77;;;9.38;;
76978;SDS011;65911;47.502;19.148;2023-11-21T17:12:20;19.80;;;9.52;;
76978;SDS011;65911;47.502;19.148;2023-11-21T17:15:22;20.73;;;9.88;;
76978;SDS011;65911;47.502;19.148;2023-11-21T17:18:25;15.93;;;9.43;;
76978;SDS011;65911;47.502;19.148;2023-11-21T17:21:27;26.10;;;10.80;;
76978;SDS011;65911;47.502;19.148;2023-11-21T17:24:35;25.85;;;11.93;;
76978;SDS011;65911;47.502;19.148;2023-11-21T17:27:38;27.08;;;12.18;;
76978;SDS011;65911;47.502;19.148;2023-11-21T17:30:40;23.20;;;11.53;;
76978;SDS011;65911;47.502;19.148;2023-11-21T17:33:43;21.00;;;12.95;;
76978;SDS011;65911;47.502;19.148;2023-11-21T17:36:45;22.85;;;12.82;;
76978;SDS011;65911;47.502;19.148;2023-11-21T17:39:47;27.42;;;11.68;;
76978;SDS011;65911;47.502;19.148;2023-11-21T17:42:50;23.88;;;14.13;;
76978;SDS011;65911;47.502;19.148;2023-11-21T17:45:52;31.73;;;15.38;;
76978;SDS011;65911;47.502;19.148;2023-11-21T17:48:54;31.90;;;15.82;;
76978;SDS011;65911;47.502;19.148;2023-11-21T17:51:56;33.73;;;16.93;;
76978;SDS011;65911;47.502;19.148;2023-11-21T17:54:58;27.77;;;16.13;;
76978;SDS011;65911;47.502;19.148;2023-11-21T17:58:01;31.17;;;15.05;;